Time;durP1;ratioP1;P1;durP2;ratioP2;P2;SDS_P1;SDS_P2;PMS_P1;PMS_P2;Temp;Humidity;BMP_temperature;BMP_pressure;BME280_temperature;BME280_humidity;BME280_pressure;Samples;Min_cycle;Max_cycle;Signal;HPM_P1;HPM_P2
2021/12/21 00:00:20;;;;;;;12.05;5.35;;;-0.70;99.90;;;;;;4973650;28;20648;-83
2021/12/21 00:02:48;;;;;;;10.82;6.00;;;-0.70;99.90;;;;;;4955194;28;20043;-84
2021/12/21 00:05:19;;;;;;;8.68;4.43;;;-0.70;99.90;;;;;;4955084;28;20411;-84
2021/12/21 00:07:48;;;;;;;14.95;6.25;;;-0.70;99.90;;;;;;4973172;28;20058;-84
2021/12/21 00:10:15;;;;;;;11.05;5.95;;;-0.70;99.90;;;;;;4971493;28;20053;-83
2021/12/21 00:12:51;;;;;;;11.48;5.60;;;-0.70;99.90;;;;;;4954305;28;20047;-84
2021/12/21 00:15:24;;;;;;;10.20;4.95;;;-0.70;99.90;;;;;;4953516;28;20404;-83
2021/12/21 00:18:02;;;;;;;12.10;5.80;;;-0.70;99.90;;;;;;4951263;28;20130;-83
2021/12/21 00:20:46;;;;;;;13.38;6.32;;;-0.80;99.90;;;;;;4967269;28;20074;-83
2021/12/21 00:25:44;;;;;;;11.40;6.22;;;-0.80;99.90;;;;;;4965177;28;20090;-84
2021/12/21 00:28:10;;;;;;;12.20;6.13;;;-0.80;99.90;;;;;;4967875;28;20461;-83
2021/12/21 00:30:35;;;;;;;14.23;6.57;;;-0.80;99.90;;;;;;4971761;28;20039;-83
2021/12/21 00:33:01;;;;;;;10.50;5.82;;;-0.90;99.90;;;;;;4966325;28;20475;-83
2021/12/21 00:35:27;;;;;;;10.02;5.43;;;-0.80;99.90;;;;;;4970868;28;20109;-83
2021/12/21 00:37:53;;;;;;;14.38;5.95;;;-0.90;99.90;;;;;;4970642;28;20187;-84
2021/12/21 00:40:18;;;;;;;12.70;6.10;;;-0.90;99.90;;;;;;4969801;28;20113;-83
2021/12/21 00:42:44;;;;;;;11.90;5.93;;;-0.90;99.90;;;;;;4972374;28;20842;-83
2021/12/21 00:45:10;;;;;;;12.40;5.80;;;-0.90;99.90;;;;;;4971744;28;20054;-83
2021/12/21 00:47:40;;;;;;;18.35;7.80;;;-0.90;99.90;;;;;;4970419;28;20062;-83
2021/12/21 00:50:08;;;;;;;13.10;5.35;;;-0.90;99.90;;;;;;4965825;28;20050;-83
2021/12/21 00:52:34;;;;;;;14.27;6.80;;;-0.90;99.90;;;;;;4970447;28;20461;-83
2021/12/21 00:54:59;;;;;;;11.05;5.50;;;-0.90;99.90;;;;;;4969601;28;20046;-83
2021/12/21 00:57:25;;;;;;;11.98;6.53;;;-0.90;99.90;;;;;;4954686;28;20042;-83
2021/12/21 00:59:51;;;;;;;11.95;6.22;;;-0.90;99.90;;;;;;4969498;28;20049;-83
2021/12/21 01:02:16;;;;;;;15.27;7.25;;;-1.00;99.90;;;;;;4950784;28;20480;-83
2021/12/21 01:04:46;;;;;;;13.80;7.15;;;-1.00;99.90;;;;;;4969047;28;20046;-83
2021/12/21 01:17:58;;;;;;;16.08;7.07;;;-1.10;99.90;;;;;;4969966;28;20047;-82
2021/12/21 01:20:38;;;;;;;11.20;5.07;;;-1.10;99.90;;;;;;4968472;28;20134;-83
2021/12/21 01:23:42;;;;;;;13.93;6.90;;;-1.10;99.90;;;;;;4953009;28;20041;-83
2021/12/21 01:31:18;;;;;;;12.05;5.53;;;-1.20;99.90;;;;;;4969618;28;20096;-83
2021/12/21 01:34:16;;;;;;;15.05;6.90;;;-1.20;99.90;;;;;;4969283;28;20049;-83
2021/12/21 01:36:56;;;;;;;10.80;5.45;;;-1.20;99.90;;;;;;4951442;28;20141;-82
2021/12/21 01:42:18;;;;;;;16.45;6.57;;;-1.20;99.90;;;;;;4966760;28;20046;-82
2021/12/21 01:50:12;;;;;;;12.25;5.93;;;-1.20;99.90;;;;;;4968828;28;20750;-83
2021/12/21 01:52:37;;;;;;;9.77;4.88;;;-1.20;99.90;;;;;;4969027;28;20050;-83
2021/12/21 01:55:05;;;;;;;11.07;5.40;;;-1.30;99.90;;;;;;4970136;28;20046;-83
2021/12/21 01:57:31;;;;;;;11.90;5.15;;;-1.30;99.90;;;;;;4965467;28;20039;-83
2021/12/21 01:59:57;;;;;;;12.88;5.38;;;-1.30;99.90;;;;;;4971315;28;20169;-83
2021/12/21 02:02:22;;;;;;;13.82;5.78;;;-1.30;99.90;;;;;;4968476;28;20049;-83
2021/12/21 02:04:48;;;;;;;13.85;6.32;;;-1.30;99.90;;;;;;4951959;28;20042;-83
2021/12/21 02:07:14;;;;;;;12.68;5.32;;;-1.30;99.90;;;;;;4956385;28;20117;-83
2021/12/21 02:09:40;;;;;;;10.73;5.38;;;-1.30;99.90;;;;;;4954167;28;20094;-83
2021/12/21 02:12:10;;;;;;;13.27;6.13;;;-1.30;99.90;;;;;;4969760;28;20070;-83
2021/12/21 02:14:36;;;;;;;11.07;5.47;;;-1.30;99.90;;;;;;4960937;28;20050;-83
2021/12/21 02:17:36;;;;;;;10.20;4.82;;;-1.30;99.90;;;;;;4955799;28;20054;-83
2021/12/21 02:20:26;;;;;;;11.07;5.63;;;-1.40;99.90;;;;;;4964301;28;20057;-83
2021/12/21 02:22:55;;;;;;;11.50;5.90;;;-1.40;99.90;;;;;;4965100;28;20057;-83
2021/12/21 02:30:48;;;;;;;12.60;5.63;;;-1.40;99.90;;;;;;4967031;28;20087;-83
2021/12/21 02:33:15;;;;;;;12.85;5.70;;;-1.40;99.90;;;;;;4966182;28;20103;-82
2021/12/21 02:35:41;;;;;;;10.10;4.95;;;-1.50;99.90;;;;;;4969971;28;20093;-83
2021/12/21 02:38:08;;;;;;;11.20;5.18;;;-1.50;99.90;;;;;;4967416;28;20059;-83
2021/12/21 02:40:34;;;;;;;11.15;5.00;;;-1.50;99.90;;;;;;4950218;28;20053;-82
2021/12/21 02:42:59;;;;;;;11.18;5.30;;;-1.50;99.90;;;;;;4968742;28;20408;-83
2021/12/21 02:45:25;;;;;;;10.70;5.28;;;-1.50;99.90;;;;;;4972577;28;20524;-83
2021/12/21 02:47:50;;;;;;;11.30;6.13;;;-1.50;99.90;;;;;;4957715;28;20050;-83
2021/12/21 02:50:17;;;;;;;12.75;6.18;;;-1.60;99.90;;;;;;4956468;28;20046;-83
2021/12/21 02:52:42;;;;;;;11.18;5.93;;;-1.60;99.90;;;;;;4973763;28;20050;-83
2021/12/21 02:55:09;;;;;;;12.60;4.00;;;-1.50;99.90;;;;;;4973920;28;20121;-83
2021/12/21 02:57:34;;;;;;;10.85;5.22;;;-1.60;99.90;;;;;;4955861;28;20106;-83
2021/12/21 03:00:01;;;;;;;11.32;5.47;;;-1.60;99.90;;;;;;4968655;28;20516;-83
2021/12/21 03:02:28;;;;;;;9.57;5.78;;;-1.60;99.90;;;;;;4951326;28;20030;-83
2021/12/21 03:04:55;;;;;;;13.95;6.03;;;-1.60;99.90;;;;;;4974458;28;20049;-83
2021/12/21 03:10:10;;;;;;;12.15;6.25;;;-1.60;99.90;;;;;;4964865;28;20049;-83
2021/12/21 03:15:23;;;;;;;10.52;5.32;;;-1.60;99.90;;;;;;4972438;28;20114;-83
2021/12/21 03:17:50;;;;;;;14.23;6.03;;;-1.60;99.90;;;;;;4974718;28;20082;-83
2021/12/21 03:20:17;;;;;;;13.05;6.45;;;-1.60;99.90;;;;;;4955827;28;20555;-83
2021/12/21 03:22:42;;;;;;;13.43;5.47;;;-1.60;99.90;;;;;;4971336;28;20051;-83
2021/12/21 03:25:08;;;;;;;12.95;6.32;;;-1.60;99.90;;;;;;4970679;28;20035;-83
2021/12/21 03:27:34;;;;;;;12.32;5.18;;;-1.70;99.90;;;;;;4954437;28;20039;-83
2021/12/21 03:30:00;;;;;;;9.68;5.63;;;-1.70;99.90;;;;;;4971964;28;20130;-84
2021/12/21 03:32:25;;;;;;;12.90;5.85;;;-1.70;99.90;;;;;;4955802;28;20497;-83
2021/12/21 03:34:51;;;;;;;15.02;6.18;;;-1.70;99.90;;;;;;4970167;28;20081;-84
2021/12/21 03:37:17;;;;;;;12.60;5.57;;;-1.70;99.90;;;;;;4973332;28;20046;-83
2021/12/21 03:39:45;;;;;;;13.80;5.85;;;-1.70;99.90;;;;;;4971044;28;20416;-83
2021/12/21 03:42:13;;;;;;;13.95;5.82;;;-1.80;99.90;;;;;;4969620;28;20162;-83
2021/12/21 03:44:39;;;;;;;12.40;6.38;;;-1.80;99.90;;;;;;4953297;28;20055;-83
2021/12/21 03:47:09;;;;;;;11.23;5.55;;;-1.80;99.90;;;;;;4967037;28;20054;-83
2021/12/21 03:52:09;;;;;;;10.88;5.45;;;-1.80;99.90;;;;;;4972062;28;20797;-83
2021/12/21 03:54:36;;;;;;;10.52;5.43;;;-1.80;99.90;;;;;;4968384;28;20353;-85
2021/12/21 03:57:03;;;;;;;11.70;5.40;;;-1.80;99.90;;;;;;4955609;28;20043;-83
2021/12/21 03:59:28;;;;;;;9.57;4.70;;;-1.80;99.90;;;;;;4971071;28;20108;-83
2021/12/21 04:01:54;;;;;;;12.60;5.30;;;-1.90;99.90;;;;;;4970262;28;20126;-84
2021/12/21 04:04:22;;;;;;;11.20;5.57;;;-1.90;99.90;;;;;;4970530;28;20117;-84
2021/12/21 04:06:48;;;;;;;10.25;5.68;;;-1.90;99.90;;;;;;4969965;28;20499;-84
2021/12/21 04:09:14;;;;;;;9.30;5.20;;;-1.90;99.90;;;;;;4954838;28;20041;-83
2021/12/21 04:11:40;;;;;;;12.15;6.07;;;-1.90;99.90;;;;;;4954916;28;20046;-83
2021/12/21 04:14:06;;;;;;;8.88;4.93;;;-1.90;99.90;;;;;;4971683;28;20081;-83
2021/12/21 04:16:32;;;;;;;14.32;5.70;;;-1.90;99.90;;;;;;4971617;28;20078;-84
2021/12/21 04:18:58;;;;;;;13.77;5.68;;;-1.90;99.90;;;;;;4970603;28;20139;-84
2021/12/21 04:21:23;;;;;;;16.27;5.47;;;-1.90;99.90;;;;;;4970893;28;20053;-83
2021/12/21 04:23:49;;;;;;;9.52;5.28;;;-1.90;99.90;;;;;;4954362;28;20077;-83
2021/12/21 04:26:16;;;;;;;11.60;5.00;;;-1.90;99.90;;;;;;4969545;28;20465;-83
2021/12/21 04:28:42;;;;;;;11.00;5.70;;;-1.90;99.90;;;;;;4972818;28;20046;-83
2021/12/21 04:31:10;;;;;;;14.18;6.63;;;-2.00;99.90;;;;;;4968966;28;20043;-84
2021/12/21 04:33:37;;;;;;;11.05;5.43;;;-2.00;99.90;;;;;;4954680;28;20038;-84
2021/12/21 04:36:03;;;;;;;10.15;5.50;;;-2.00;99.90;;;;;;4970409;28;20471;-84
2021/12/21 04:38:34;;;;;;;11.75;5.45;;;-2.00;99.90;;;;;;4965096;28;20046;-84
2021/12/21 04:41:07;;;;;;;11.73;5.57;;;-2.00;99.90;;;;;;4951642;28;20070;-83
2021/12/21 04:43:33;;;;;;;12.00;6.03;;;-2.00;99.90;;;;;;4954377;28;20053;-84
2021/12/21 04:45:59;;;;;;;11.88;5.20;;;-2.00;99.90;;;;;;4955112;28;20039;-84
2021/12/21 04:48:25;;;;;;;11.77;5.03;;;-2.00;99.90;;;;;;4966032;28;20043;-83
2021/12/21 04:50:50;;;;;;;11.60;6.07;;;-2.00;99.90;;;;;;4969572;28;20137;-84
2021/12/21 04:53:17;;;;;;;12.77;5.75;;;-2.10;99.90;;;;;;4971399;28;20057;-84
2021/12/21 04:55:43;;;;;;;14.10;5.93;;;-2.10;99.90;;;;;;4970388;28;20415;-84
2021/12/21 04:58:09;;;;;;;12.88;6.75;;;-2.10;99.90;;;;;;4954877;28;20174;-83
2021/12/21 05:00:36;;;;;;;13.05;5.47;;;-2.10;99.90;;;;;;4970747;28;20031;-84
2021/12/21 05:03:01;;;;;;;13.20;5.85;;;-2.00;99.90;;;;;;4967927;28;20058;-84
2021/12/21 05:05:27;;;;;;;12.43;6.00;;;-2.00;99.90;;;;;;4972403;28;20046;-83
2021/12/21 05:08:19;;;;;;;10.50;5.40;;;-2.00;99.90;;;;;;4955840;28;20464;-85
2021/12/21 05:10:59;;;;;;;13.13;5.45;;;-2.00;99.90;;;;;;4949415;28;20128;-84
2021/12/21 05:13:29;;;;;;;13.68;5.50;;;-2.10;99.90;;;;;;4971969;28;20074;-84
2021/12/21 05:15:55;;;;;;;13.45;5.63;;;-2.00;99.90;;;;;;4971160;28;20106;-84
2021/12/21 05:18:22;;;;;;;15.35;6.32;;;-2.10;99.90;;;;;;4956100;28;20046;-84
2021/12/21 05:20:48;;;;;;;11.05;5.45;;;-2.10;99.90;;;;;;4949757;29;20075;-84
2021/12/21 05:23:14;;;;;;;11.50;5.93;;;-2.10;99.90;;;;;;4968973;28;20038;-84
2021/12/21 05:25:40;;;;;;;9.07;4.53;;;-2.10;99.90;;;;;;4969342;28;20129;-84
2021/12/21 05:28:07;;;;;;;10.70;5.07;;;-2.10;99.90;;;;;;4971797;28;20043;-84
2021/12/21 05:30:36;;;;;;;10.10;5.05;;;-2.10;99.90;;;;;;4969798;28;20046;-84
2021/12/21 05:33:03;;;;;;;11.32;5.00;;;-2.20;99.90;;;;;;4969610;28;20467;-83
2021/12/21 05:35:29;;;;;;;11.80;5.40;;;-2.20;99.90;;;;;;4953120;28;20081;-83
2021/12/21 05:37:59;;;;;;;7.53;4.03;;;-2.20;99.90;;;;;;4967925;28;20066;-83
2021/12/21 05:40:33;;;;;;;14.45;5.65;;;-2.20;99.90;;;;;;4969994;28;20093;-83
2021/12/21 05:42:59;;;;;;;12.57;5.90;;;-2.20;99.90;;;;;;4971029;28;20106;-83
2021/12/21 05:45:25;;;;;;;10.70;4.53;;;-2.30;99.90;;;;;;4971119;28;20034;-84
2021/12/21 05:47:50;;;;;;;10.52;5.53;;;-2.20;99.90;;;;;;4969639;28;20085;-83
2021/12/21 05:50:17;;;;;;;11.90;5.78;;;-2.30;99.90;;;;;;4968012;28;20473;-83
2021/12/21 05:52:44;;;;;;;11.32;4.75;;;-2.30;99.90;;;;;;4954413;28;20190;-82
2021/12/21 05:55:10;;;;;;;13.98;5.82;;;-2.30;99.90;;;;;;4968289;28;20034;-83
2021/12/21 05:57:36;;;;;;;15.88;6.55;;;-2.30;99.90;;;;;;4985859;28;20054;-83
2021/12/21 06:00:05;;;;;;;10.50;5.10;;;-2.30;99.90;;;;;;4970909;28;20035;-83
2021/12/21 06:02:30;;;;;;;11.63;5.00;;;-2.30;99.90;;;;;;4953678;28;20519;-84
2021/12/21 06:04:56;;;;;;;10.68;5.68;;;-2.30;99.90;;;;;;4968359;28;20046;-83
2021/12/21 06:07:21;;;;;;;9.98;5.25;;;-2.30;99.90;;;;;;4971223;28;20556;-83
2021/12/21 06:09:48;;;;;;;15.32;5.55;;;-2.30;99.90;;;;;;4965423;28;20109;-83
2021/12/21 06:12:29;;;;;;;11.32;5.43;;;-2.30;99.90;;;;;;4971055;28;20038;-83
2021/12/21 06:26:03;;;;;;;12.35;6.28;;;-2.40;99.90;;;;;;4966112;28;20078;-83
2021/12/21 06:28:29;;;;;;;12.63;6.25;;;-2.40;99.90;;;;;;4946799;28;20113;-83
2021/12/21 06:30:55;;;;;;;14.10;5.80;;;-2.40;99.90;;;;;;4970203;28;20117;-84
2021/12/21 06:33:21;;;;;;;11.50;5.80;;;-2.40;99.90;;;;;;4967835;28;20097;-83
2021/12/21 06:35:49;;;;;;;17.70;6.60;;;-2.40;99.90;;;;;;4953844;28;20049;-83
2021/12/21 06:38:14;;;;;;;10.77;5.13;;;-2.40;99.90;;;;;;4967237;28;20093;-83
2021/12/21 06:40:40;;;;;;;11.07;5.43;;;-2.40;99.90;;;;;;4950737;28;20050;-84
2021/12/21 06:43:11;;;;;;;12.20;5.78;;;-2.40;99.90;;;;;;4966954;28;20135;-83
2021/12/21 06:51:15;;;;;;;11.23;6.03;;;-2.50;99.90;;;;;;4966190;28;20054;-83
2021/12/21 06:53:44;;;;;;;12.60;6.05;;;-2.50;99.90;;;;;;4949574;28;20087;-83
2021/12/21 06:56:10;;;;;;;16.95;6.82;;;-2.50;99.90;;;;;;4966487;28;20050;-83
2021/12/21 06:58:36;;;;;;;10.55;5.80;;;-2.50;99.90;;;;;;4949655;28;20471;-83
2021/12/21 07:01:03;;;;;;;13.02;6.47;;;-2.50;99.90;;;;;;4947404;28;20125;-83
2021/12/21 07:03:29;;;;;;;9.88;5.47;;;-2.50;99.90;;;;;;4967465;28;20126;-83
2021/12/21 07:05:59;;;;;;;11.85;5.88;;;-2.50;99.90;;;;;;4949978;28;20125;-83
2021/12/21 07:08:28;;;;;;;13.88;6.10;;;-2.60;99.90;;;;;;4967724;28;20053;-83
2021/12/21 07:11:08;;;;;;;12.82;5.72;;;-2.60;99.90;;;;;;4967262;28;20399;-83
2021/12/21 07:19:03;;;;;;;13.10;5.78;;;-2.60;99.90;;;;;;4967290;28;20043;-83
2021/12/21 07:21:28;;;;;;;10.82;5.90;;;-2.60;99.90;;;;;;4966669;28;20050;-83
2021/12/21 07:23:54;;;;;;;13.40;6.07;;;-2.60;99.90;;;;;;4970070;28;20054;-83
2021/12/21 07:26:19;;;;;;;13.65;6.60;;;-2.60;99.90;;;;;;4970500;28;20044;-83
2021/12/21 07:28:45;;;;;;;10.57;5.75;;;-2.60;99.90;;;;;;4968925;28;20051;-83
2021/12/21 07:31:11;;;;;;;11.13;5.38;;;-2.60;99.90;;;;;;4955426;28;20047;-83
2021/12/21 07:33:36;;;;;;;16.42;6.38;;;-2.60;99.90;;;;;;4975290;28;20514;-83
2021/12/21 07:36:03;;;;;;;13.63;6.13;;;-2.60;99.90;;;;;;4970726;28;20508;-84
2021/12/21 07:38:30;;;;;;;15.68;6.68;;;-2.60;99.90;;;;;;4969943;28;20137;-83
2021/12/21 07:41:03;;;;;;;13.77;7.30;;;-2.70;99.90;;;;;;4972718;28;20015;-83
2021/12/21 07:43:28;;;;;;;;;;;-2.60;99.90;;;;;;4973396;28;20473;-84
2021/12/21 07:45:54;;;;;;;11.43;6.15;;;-2.70;99.90;;;;;;4952866;28;19929;-83
2021/12/21 07:48:20;;;;;;;16.83;6.88;;;-2.70;99.90;;;;;;4965420;28;20333;-83
2021/12/21 07:50:47;;;;;;;15.60;7.13;;;-2.60;99.90;;;;;;4970434;28;20053;-83
2021/12/21 07:53:16;;;;;;;13.90;7.00;;;-2.70;99.90;;;;;;4973228;28;20082;-83
2021/12/21 07:55:42;;;;;;;13.52;6.18;;;-2.70;99.90;;;;;;4969337;28;20039;-83
2021/12/21 07:58:08;;;;;;;18.75;8.07;;;-2.60;99.90;;;;;;4956845;28;20043;-83
2021/12/21 08:00:34;;;;;;;13.52;7.38;;;-2.60;99.90;;;;;;4965743;28;20508;-84
2021/12/21 08:03:00;;;;;;;15.75;7.47;;;-2.60;99.90;;;;;;4951747;28;20121;-84
2021/12/21 08:05:31;;;;;;;12.38;6.05;;;-2.60;99.90;;;;;;4970384;28;20552;-83
2021/12/21 08:08:08;;;;;;;13.45;7.15;;;-2.60;99.90;;;;;;4972822;28;20404;-83
2021/12/21 08:11:08;;;;;;;14.30;6.95;;;-2.60;99.90;;;;;;4967979;28;20034;-83
2021/12/21 08:13:23;;;;;;;17.73;8.75;;;-2.60;99.90;;;;;;4970195;28;20453;-83
2021/12/21 08:15:49;;;;;;;19.38;8.35;;;-2.50;99.90;;;;;;4968072;28;20046;-83
2021/12/21 08:18:15;;;;;;;17.00;7.57;;;-2.50;99.90;;;;;;4972694;28;20065;-83
2021/12/21 08:20:42;;;;;;;15.50;7.82;;;-2.50;99.90;;;;;;4970566;28;20436;-83
2021/12/21 08:23:08;;;;;;;18.38;9.15;;;-2.50;99.90;;;;;;4970012;28;20035;-83
2021/12/21 08:25:35;;;;;;;21.27;9.63;;;-2.50;99.90;;;;;;4966885;28;20038;-83
2021/12/21 08:28:02;;;;;;;16.90;9.13;;;-2.40;99.90;;;;;;4969866;28;20039;-83
2021/12/21 08:30:29;;;;;;;16.02;9.10;;;-2.40;99.90;;;;;;4967892;28;20465;-83
2021/12/21 08:32:57;;;;;;;17.00;9.20;;;-2.40;99.90;;;;;;4955415;28;20061;-83
2021/12/21 08:35:23;;;;;;;22.42;10.90;;;-2.40;99.90;;;;;;4955161;28;20073;-83
2021/12/21 08:37:52;;;;;;;19.23;9.48;;;-2.40;99.90;;;;;;4972103;28;20054;-83
2021/12/21 08:40:22;;;;;;;20.05;10.77;;;-2.30;99.90;;;;;;4954551;28;20058;-83
2021/12/21 08:42:50;;;;;;;20.30;10.40;;;-2.30;99.90;;;;;;4954697;28;20041;-83
2021/12/21 08:45:16;;;;;;;20.98;12.23;;;-2.30;99.90;;;;;;4970333;28;20039;-83
2021/12/21 08:47:42;;;;;;;23.38;11.77;;;-2.20;99.90;;;;;;4969464;28;20058;-83
2021/12/21 08:50:11;;;;;;;28.33;13.20;;;-2.10;99.90;;;;;;4968813;28;20042;-83
2021/12/21 08:52:37;;;;;;;24.00;12.50;;;-2.10;99.90;;;;;;4953656;28;20057;-83
2021/12/21 08:55:05;;;;;;;24.23;11.18;;;-2.10;99.90;;;;;;4971889;28;20079;-83
2021/12/21 08:57:31;;;;;;;18.73;10.15;;;-2.00;99.90;;;;;;4954282;28;20472;-83
2021/12/21 08:59:56;;;;;;;24.05;12.48;;;-2.00;99.90;;;;;;4970372;28;20117;-83
2021/12/21 09:02:22;;;;;;;21.70;11.32;;;-1.90;99.90;;;;;;4969472;28;20378;-82
2021/12/21 09:04:48;;;;;;;26.10;12.73;;;-1.90;99.90;;;;;;4953969;28;20126;-82
2021/12/21 09:07:14;;;;;;;24.38;13.13;;;-1.80;99.90;;;;;;4970326;28;20468;-83
2021/12/21 09:09:39;;;;;;;20.25;10.48;;;-1.80;99.90;;;;;;4967500;28;20042;-83
2021/12/21 09:12:06;;;;;;;21.65;12.00;;;-1.80;99.90;;;;;;4969725;28;20049;-83
2021/12/21 09:14:32;;;;;;;24.17;12.90;;;-1.70;99.90;;;;;;4968084;28;20039;-83
2021/12/21 09:17:02;;;;;;;21.77;11.52;;;-1.70;99.90;;;;;;4969013;28;20391;-83
2021/12/21 09:19:28;;;;;;;19.95;12.68;;;-1.60;99.90;;;;;;4969934;28;20113;-83
2021/12/21 09:21:54;;;;;;;23.10;12.68;;;-1.60;99.90;;;;;;4949727;28;20057;-83
2021/12/21 09:24:20;;;;;;;18.65;10.98;;;-1.50;99.90;;;;;;4951687;28;20125;-82
2021/12/21 09:26:45;;;;;;;25.98;14.13;;;-1.50;99.90;;;;;;4967714;28;20177;-83
2021/12/21 09:29:11;;;;;;;22.25;12.35;;;-1.50;99.90;;;;;;4966600;28;20348;-83
2021/12/21 09:31:37;;;;;;;23.45;13.25;;;-1.40;99.90;;;;;;4964707;28;20053;-83
2021/12/21 09:34:03;;;;;;;23.90;13.23;;;-1.30;99.90;;;;;;4965373;28;20035;-83
2021/12/21 09:36:29;;;;;;;28.33;16.27;;;-1.30;99.90;;;;;;4968211;28;20408;-83
2021/12/21 09:38:55;;;;;;;28.98;17.42;;;-1.20;99.90;;;;;;4951635;28;20454;-83
2021/12/21 09:41:22;;;;;;;36.45;18.25;;;-1.10;99.90;;;;;;4969252;28;20039;-83
2021/12/21 09:43:48;;;;;;;31.02;17.67;;;-1.00;99.90;;;;;;4968647;28;20400;-83
2021/12/21 09:46:14;;;;;;;35.63;20.27;;;-0.90;99.90;;;;;;4948595;28;20031;-83
2021/12/21 09:48:40;;;;;;;30.85;18.98;;;-0.80;99.90;;;;;;4982785;28;20061;-83
2021/12/21 09:51:06;;;;;;;32.65;16.30;;;-0.70;99.90;;;;;;4965074;28;20039;-83
2021/12/21 09:53:33;;;;;;;28.08;15.95;;;-0.60;99.90;;;;;;4951142;28;20574;-83
2021/12/21 09:55:59;;;;;;;28.45;16.13;;;-0.60;99.90;;;;;;4948115;28;20118;-83
2021/12/21 09:58:25;;;;;;;28.75;17.65;;;-0.50;99.90;;;;;;4964873;28;20081;-83
2021/12/21 10:00:50;;;;;;;34.42;20.27;;;-0.50;99.90;;;;;;4950804;28;20122;-83
2021/12/21 10:03:17;;;;;;;33.78;18.02;;;-0.40;99.90;;;;;;4966343;28;20106;-83
2021/12/21 10:05:44;;;;;;;29.95;17.15;;;-0.30;99.90;;;;;;4967230;28;20121;-83
2021/12/21 10:08:13;;;;;;;34.95;20.73;;;-0.30;99.90;;;;;;4963587;28;20089;-83
2021/12/21 10:10:45;;;;;;;31.05;20.17;;;-0.20;99.90;;;;;;4963301;28;20504;-83
2021/12/21 10:13:19;;;;;;;36.45;16.33;;;-0.10;99.90;;;;;;4965544;28;20484;-83
2021/12/21 10:15:48;;;;;;;27.38;15.10;;;-0.10;99.90;;;;;;4965042;28;20070;-83
2021/12/21 10:18:25;;;;;;;26.55;15.85;;;0.00;99.90;;;;;;4967926;28;20097;-83
2021/12/21 10:20:52;;;;;;;29.55;17.15;;;0.00;99.90;;;;;;4968905;28;20396;-83
2021/12/21 10:23:28;;;;;;;31.90;17.80;;;0.10;99.90;;;;;;4966802;28;20125;-83
2021/12/21 10:25:58;;;;;;;33.80;18.20;;;0.20;99.90;;;;;;4965215;28;20043;-83
2021/12/21 10:28:44;;;;;;;24.77;15.75;;;0.30;99.90;;;;;;4967231;28;20050;-83
2021/12/21 10:31:14;;;;;;;25.15;15.57;;;0.30;99.90;;;;;;4967266;28;20611;-83
2021/12/21 10:33:44;;;;;;;23.98;15.55;;;0.40;99.90;;;;;;4968079;28;20200;-83
2021/12/21 10:36:11;;;;;;;29.35;15.35;;;0.50;99.90;;;;;;4952892;28;20245;-83
2021/12/21 10:38:52;;;;;;;29.80;15.85;;;0.60;99.90;;;;;;4968352;28;20449;-82
2021/12/21 10:41:26;;;;;;;23.70;14.07;;;0.90;99.90;;;;;;4967975;28;20101;-82
2021/12/21 10:44:13;;;;;;;26.45;16.27;;;1.60;99.90;;;;;;4968026;28;20421;-83
2021/12/21 10:46:52;;;;;;;23.77;15.18;;;2.50;99.90;;;;;;4965642;28;20345;-82
2021/12/21 10:49:24;;;;;;;23.48;14.82;;;3.30;99.90;;;;;;4961443;28;20484;-82
2021/12/21 10:51:55;;;;;;;22.65;13.25;;;3.90;99.90;;;;;;4965879;28;20523;-82
2021/12/21 10:54:32;;;;;;;22.30;13.52;;;4.40;99.90;;;;;;4967605;28;20253;-82
2021/12/21 10:57:00;;;;;;;21.30;12.88;;;4.90;99.90;;;;;;4967878;28;20043;-82
2021/12/21 10:59:37;;;;;;;18.20;11.68;;;5.30;99.90;;;;;;4966456;28;20428;-82
2021/12/21 11:02:13;;;;;;;25.33;13.57;;;5.60;99.90;;;;;;4966975;28;20039;-83
2021/12/21 11:04:44;;;;;;;21.15;12.73;;;6.00;99.90;;;;;;4968182;28;20035;-82
2021/12/21 11:10:10;;;;;;;16.58;9.50;;;6.40;99.90;;;;;;4970021;28;20510;-83
2021/12/21 11:12:46;;;;;;;19.52;11.27;;;6.70;99.90;;;;;;4970809;28;20361;-83
2021/12/21 11:15:15;;;;;;;37.13;20.20;;;7.00;99.90;;;;;;4952739;28;20039;-83
2021/12/21 11:17:42;;;;;;;23.45;14.00;;;7.10;99.90;;;;;;4968420;28;20105;-82
2021/12/21 11:20:10;;;;;;;24.23;12.00;;;7.30;99.90;;;;;;4951157;28;20038;-82
2021/12/21 11:22:38;;;;;;;17.83;11.10;;;7.40;99.90;;;;;;4970428;28;20567;-82
2021/12/21 11:25:05;;;;;;;19.85;11.55;;;7.50;99.90;;;;;;4969518;28;20105;-83
2021/12/21 11:27:34;;;;;;;17.27;9.50;;;7.80;99.90;;;;;;4970561;28;20405;-83
2021/12/21 11:30:02;;;;;;;14.20;9.50;;;7.90;99.90;;;;;;4970406;28;20465;-83
2021/12/21 11:32:31;;;;;;;13.20;8.40;;;8.10;99.90;;;;;;4954276;28;20137;-83
2021/12/21 11:37:20;;;;;;;15.52;9.45;;;8.30;99.90;;;;;;4967832;28;20043;-83
2021/12/21 11:37:49;;;;;;;13.02;8.90;;;8.40;99.90;;;;;;4966022;28;20043;-82
2021/12/21 11:40:23;;;;;;;15.07;7.77;;;8.30;99.90;;;;;;4967451;28;20062;-83
2021/12/21 11:42:51;;;;;;;17.13;9.15;;;8.40;99.90;;;;;;4963622;28;20047;-83
2021/12/21 11:45:29;;;;;;;14.07;9.10;;;8.70;99.90;;;;;;4951630;28;20445;-83
2021/12/21 11:48:04;;;;;;;16.45;9.10;;;8.90;99.90;;;;;;4969764;28;20480;-84
2021/12/21 11:50:30;;;;;;;15.35;8.18;;;9.10;99.90;;;;;;4950936;28;20497;-83
2021/12/21 11:53:05;;;;;;;14.30;8.48;;;9.20;99.90;;;;;;4954519;28;20094;-81
2021/12/21 11:55:32;;;;;;;14.32;8.95;;;9.50;98.70;;;;;;4969392;28;20042;-81
2021/12/21 11:58:01;;;;;;;13.55;8.15;;;9.60;99.10;;;;;;4953581;28;20049;-81
2021/12/21 12:00:34;;;;;;;13.43;8.77;;;9.70;98.50;;;;;;4965433;28;20046;-84
2021/12/21 12:03:11;;;;;;;15.35;8.95;;;9.90;96.80;;;;;;4968840;28;20500;-84
2021/12/21 12:06:00;;;;;;;13.68;8.35;;;10.00;95.00;;;;;;4947311;28;20179;-83
2021/12/21 12:08:55;;;;;;;15.88;9.77;;;10.20;97.40;;;;;;4966709;28;20055;-84
2021/12/21 12:11:42;;;;;;;13.30;7.72;;;10.30;92.60;;;;;;4966304;28;20047;-84
2021/12/21 12:14:20;;;;;;;14.38;8.07;;;10.50;94.30;;;;;;4965518;28;20045;-82
2021/12/21 12:16:56;;;;;;;13.55;7.68;;;10.60;94.60;;;;;;4945389;28;20442;-81
2021/12/21 12:19:32;;;;;;;12.88;7.47;;;10.70;93.20;;;;;;4965300;28;20078;-81
2021/12/21 12:22:08;;;;;;;15.48;8.75;;;11.00;93.30;;;;;;4966659;28;20043;-82
2021/12/21 12:24:46;;;;;;;10.88;7.53;;;11.10;93.20;;;;;;4951447;28;20093;-82
2021/12/21 12:27:20;;;;;;;12.25;7.70;;;11.20;87.20;;;;;;4966613;28;20780;-82
2021/12/21 12:29:49;;;;;;;11.40;6.95;;;11.20;85.70;;;;;;4948376;28;20042;-82
2021/12/21 12:32:16;;;;;;;14.23;7.78;;;11.30;90.80;;;;;;4952784;28;20659;-81
2021/12/21 12:34:43;;;;;;;12.80;6.20;;;11.30;90.90;;;;;;4968705;28;20129;-80
2021/12/21 12:37:22;;;;;;;11.80;6.15;;;11.40;90.50;;;;;;4968504;28;20038;-81
2021/12/21 12:39:50;;;;;;;9.88;5.78;;;11.60;88.70;;;;;;4947943;28;20049;-81
2021/12/21 12:42:23;;;;;;;10.63;6.30;;;11.80;89.60;;;;;;4968811;28;20049;-81
2021/12/21 12:45:06;;;;;;;12.23;6.93;;;11.80;85.70;;;;;;4968992;28;20040;-81
2021/12/21 12:47:35;;;;;;;9.43;5.72;;;11.40;83.00;;;;;;4971000;28;20574;-81
2021/12/21 12:50:01;;;;;;;11.00;5.95;;;11.10;90.90;;;;;;4969365;28;20046;-81
2021/12/21 12:52:31;;;;;;;8.82;5.65;;;10.70;92.70;;;;;;4965006;28;20150;-80
2021/12/21 12:55:00;;;;;;;8.23;5.22;;;10.30;93.10;;;;;;4950506;28;20393;-81
2021/12/21 12:57:29;;;;;;;8.73;5.40;;;9.90;96.90;;;;;;4984700;28;20146;-82
2021/12/21 12:59:58;;;;;;;12.98;6.50;;;9.40;96.80;;;;;;4963087;28;20042;-81
2021/12/21 13:02:25;;;;;;;8.70;5.50;;;8.80;99.90;;;;;;4970371;28;20047;-81
2021/12/21 13:04:51;;;;;;;6.82;5.10;;;8.50;99.90;;;;;;4971664;28;20078;-81
2021/12/21 13:07:25;;;;;;;9.07;5.50;;;8.10;99.90;;;;;;4966645;28;20121;-81
2021/12/21 13:09:50;;;;;;;7.82;4.97;;;7.70;99.90;;;;;;4969662;28;20038;-83
2021/12/21 13:12:16;;;;;;;12.10;5.78;;;7.30;99.90;;;;;;4967885;28;20046;-86
2021/12/21 13:14:52;;;;;;;7.25;4.10;;;7.00;99.90;;;;;;4972487;28;20129;-85
2021/12/21 13:17:18;;;;;;;9.27;4.93;;;6.60;99.90;;;;;;4953810;28;20568;-83
2021/12/21 13:19:44;;;;;;;9.07;4.40;;;6.30;99.90;;;;;;4967928;28;20130;-83
2021/12/21 13:22:09;;;;;;;10.27;5.28;;;6.00;99.90;;;;;;4969946;28;20047;-83
2021/12/21 13:24:42;;;;;;;8.13;4.75;;;5.80;99.90;;;;;;4971760;28;20105;-83
2021/12/21 13:27:09;;;;;;;;;;;5.60;99.90;;;;;;4948582;28;20046;-83
2021/12/21 13:29:35;;;;;;;8.70;5.18;;;5.40;99.90;;;;;;4967106;28;20012;-82
2021/12/21 13:32:05;;;;;;;11.38;5.22;;;5.20;99.90;;;;;;4965184;28;20584;-82
2021/12/21 13:34:32;;;;;;;10.27;4.90;;;5.00;99.90;;;;;;4947623;28;20050;-82
2021/12/21 13:37:00;;;;;;;8.07;4.93;;;4.90;99.90;;;;;;4966243;28;20042;-82
2021/12/21 13:39:38;;;;;;;12.95;5.00;;;4.80;99.90;;;;;;4966680;28;20070;-83
2021/12/21 13:42:10;;;;;;;11.35;5.45;;;4.60;99.90;;;;;;4952048;28;20496;-84
2021/12/21 13:44:42;;;;;;;10.02;5.60;;;4.50;99.90;;;;;;4983015;28;20401;-84
2021/12/21 13:47:13;;;;;;;9.57;4.95;;;4.40;99.90;;;;;;4948616;28;20047;-84
2021/12/21 13:49:54;;;;;;;10.07;5.33;;;4.30;99.90;;;;;;4984248;28;20800;-84
2021/12/21 13:52:21;;;;;;;9.68;4.47;;;4.30;99.90;;;;;;4966242;28;20169;-84